Time;durP1;ratioP1;P1;durP2;ratioP2;P2;SDS_P1;SDS_P2;PMS_P1;PMS_P2;Temp;Humidity;BMP_temperature;BMP_pressure;BME280_temperature;BME280_humidity;BME280_pressure;Samples;Min_cycle;Max_cycle;Signal;HPM_P1;HPM_P2
2021/10/28 00:12:20;;;;;;;12.00;3.13;;;11.40;99.90;;;;;;5098935;28;20202;-84
2021/10/28 00:14:56;;;;;;;14.07;3.43;;;11.40;99.90;;;;;;5079316;28;20285;-84
2021/10/28 00:17:43;;;;;;;13.27;3.67;;;11.40;99.90;;;;;;5077837;28;20227;-83
2021/10/28 00:20:15;;;;;;;13.60;3.47;;;11.40;99.90;;;;;;5085257;28;20211;-82
2021/10/28 00:22:47;;;;;;;14.50;3.93;;;11.40;99.90;;;;;;5086599;28;20215;-83
2021/10/28 00:25:17;;;;;;;14.07;2.97;;;11.30;99.90;;;;;;5081083;28;20207;-83
2021/10/28 00:27:51;;;;;;;10.77;3.17;;;11.40;99.90;;;;;;5090532;28;20207;-83
2021/10/28 00:30:22;;;;;;;13.50;3.77;;;11.30;99.90;;;;;;5069918;28;20211;-83
2021/10/28 00:32:53;;;;;;;12.23;4.23;;;11.40;99.90;;;;;;5072555;28;20205;-84
2021/10/28 00:35:25;;;;;;;19.13;3.80;;;11.30;99.90;;;;;;5071808;28;20236;-81
2021/10/28 00:37:56;;;;;;;15.40;4.03;;;11.30;99.90;;;;;;5085379;28;20199;-84
2021/10/28 00:40:26;;;;;;;13.80;4.00;;;11.30;99.90;;;;;;5095453;28;20211;-81
2021/10/28 00:43:00;;;;;;;17.50;3.47;;;11.30;99.90;;;;;;5092686;28;20226;-83
2021/10/28 00:45:32;;;;;;;11.40;3.03;;;11.30;99.90;;;;;;5091743;28;20562;-83
2021/10/28 00:48:03;;;;;;;10.27;3.37;;;11.30;99.90;;;;;;5075782;28;20204;-91
2021/10/28 00:50:35;;;;;;;10.67;2.87;;;11.20;99.90;;;;;;5089080;28;20203;-89
2021/10/28 00:53:06;;;;;;;14.00;2.80;;;11.20;99.90;;;;;;5089179;28;20211;-89
2021/10/28 00:55:38;;;;;;;11.37;3.60;;;11.10;99.90;;;;;;5086080;28;20239;-88
2021/10/28 00:58:13;;;;;;;10.30;2.90;;;11.10;99.90;;;;;;5087385;28;20188;-89
2021/10/28 01:00:45;;;;;;;15.60;3.00;;;11.00;99.90;;;;;;5082775;28;20243;-88
2021/10/28 01:03:17;;;;;;;11.10;2.47;;;11.00;99.90;;;;;;4734371;28;10001224;-88
2021/10/28 01:05:49;;;;;;;13.47;3.07;;;10.90;99.90;;;;;;5080571;28;20210;-88
2021/10/28 01:08:21;;;;;;;13.90;3.43;;;10.90;99.90;;;;;;5068043;28;20234;-87
2021/10/28 01:10:53;;;;;;;13.53;3.17;;;10.80;99.90;;;;;;5058660;28;20568;-87
2021/10/28 01:13:27;;;;;;;8.27;2.60;;;10.80;99.90;;;;;;5067642;28;20223;-89
2021/10/28 01:15:58;;;;;;;14.80;3.10;;;10.70;99.90;;;;;;5094239;28;20231;-86
2021/10/28 01:18:35;;;;;;;17.20;2.93;;;10.70;99.90;;;;;;5090860;28;20598;-87
2021/10/28 01:21:10;;;;;;;10.30;3.17;;;10.60;99.90;;;;;;5079916;28;20267;-87
2021/10/28 01:23:43;;;;;;;12.00;2.80;;;10.60;99.90;;;;;;5078536;28;20223;-87
2021/10/28 01:26:15;;;;;;;15.00;3.20;;;10.60;99.90;;;;;;5077402;28;20203;-88
2021/10/28 01:28:54;;;;;;;13.17;2.93;;;10.50;99.90;;;;;;5078007;28;20909;-89
2021/10/28 01:31:27;;;;;;;12.33;2.97;;;10.40;99.90;;;;;;5081154;28;20294;-88
2021/10/28 01:34:01;;;;;;;21.03;4.30;;;10.30;99.90;;;;;;5079347;28;20204;-88
2021/10/28 01:36:35;;;;;;;16.20;3.43;;;10.20;99.90;;;;;;5086054;28;20231;-89
2021/10/28 01:39:17;;;;;;;12.03;3.73;;;10.20;99.90;;;;;;5093265;28;20203;-89
2021/10/28 01:41:50;;;;;;;13.40;3.73;;;10.10;99.90;;;;;;5091472;28;20230;-90
2021/10/28 01:44:28;;;;;;;12.50;3.27;;;10.10;99.90;;;;;;5096732;28;20199;-88
2021/10/28 01:47:00;;;;;;;13.40;3.47;;;10.00;99.90;;;;;;5092214;28;20215;-88
2021/10/28 01:49:33;;;;;;;15.50;3.67;;;10.00;99.90;;;;;;5113865;28;20207;-88
2021/10/28 01:52:08;;;;;;;16.77;4.80;;;10.00;99.90;;;;;;5118548;28;20199;-88
2021/10/28 01:54:41;;;;;;;14.10;3.20;;;9.90;99.90;;;;;;5118391;28;20218;-87
2021/10/28 01:57:20;;;;;;;12.67;3.20;;;9.90;99.90;;;;;;5109495;28;20242;-89
2021/10/28 01:59:51;;;;;;;15.10;3.30;;;9.80;99.90;;;;;;5077183;28;20195;-88
2021/10/28 02:02:23;;;;;;;14.70;3.27;;;9.80;99.90;;;;;;5073274;28;20204;-89
2021/10/28 02:04:55;;;;;;;14.40;3.43;;;9.80;99.90;;;;;;5075051;28;20203;-88
2021/10/28 02:07:39;;;;;;;15.17;3.50;;;9.80;99.90;;;;;;5076762;28;20207;-88
2021/10/28 02:10:19;;;;;;;13.27;3.40;;;9.70;99.90;;;;;;5091482;28;20225;-87
2021/10/28 02:13:24;;;;;;;18.30;4.07;;;9.70;99.90;;;;;;5090707;28;20233;-88
2021/10/28 02:15:59;;;;;;;13.90;3.87;;;9.70;99.90;;;;;;5089156;28;20214;-89
2021/10/28 02:18:30;;;;;;;15.03;3.40;;;9.80;99.90;;;;;;5095190;28;20203;-89
2021/10/28 02:21:02;;;;;;;13.00;3.10;;;9.80;99.90;;;;;;5096240;28;20197;-89
2021/10/28 02:23:49;;;;;;;16.63;3.60;;;9.80;99.90;;;;;;5079556;28;20214;-87
2021/10/28 02:26:23;;;;;;;12.83;3.67;;;9.80;99.90;;;;;;5095179;28;20195;-89
2021/10/28 02:29:03;;;;;;;15.90;3.67;;;9.80;99.90;;;;;;5203342;22;20255;-84
2021/10/28 02:31:43;;;;;;;10.27;3.17;;;9.80;99.90;;;;;;5072169;28;20230;-88
2021/10/28 02:34:27;;;;;;;14.37;3.17;;;9.70;99.90;;;;;;5359807;22;20294;-88
2021/10/28 02:36:58;;;;;;;14.10;3.10;;;9.70;99.90;;;;;;5089899;28;20247;-88
2021/10/28 02:39:32;;;;;;;17.43;3.10;;;9.70;99.90;;;;;;5075686;28;20203;-87
2021/10/28 02:42:05;;;;;;;11.67;3.20;;;9.70;99.90;;;;;;5092001;28;20230;-88
2021/10/28 02:44:37;;;;;;;12.27;3.87;;;9.70;99.90;;;;;;5087300;28;20227;-87
2021/10/28 02:47:09;;;;;;;16.97;4.10;;;9.60;99.90;;;;;;5113333;22;20250;-87
2021/10/28 02:52:18;;;;;;;19.63;4.57;;;9.60;99.90;;;;;;5371432;23;20227;-87
2021/10/28 03:00:09;;;;;;;14.13;4.63;;;9.60;99.90;;;;;;4977584;28;20274;-88
2021/10/28 03:02:42;;;;;;;13.93;4.17;;;9.50;99.90;;;;;;4961958;28;20222;-88
2021/10/28 03:05:26;;;;;;;10.37;3.17;;;9.50;99.90;;;;;;4978475;28;20206;-88
2021/10/28 03:07:57;;;;;;;15.80;3.77;;;9.50;99.90;;;;;;4978507;28;20203;-86
2021/10/28 03:10:28;;;;;;;16.60;4.83;;;9.50;99.90;;;;;;4978881;28;20236;-89
2021/10/28 03:13:04;;;;;;;15.20;4.37;;;9.40;99.90;;;;;;5177234;23;20258;-86
2021/10/28 03:26:41;;;;;;;16.50;4.20;;;9.40;99.90;;;;;;5009108;28;20221;-87
2021/10/28 03:29:15;;;;;;;14.87;4.10;;;9.40;99.90;;;;;;5213535;23;21216;-87
2021/10/28 03:31:52;;;;;;;14.13;4.33;;;9.40;99.90;;;;;;5021307;28;20741;-85
2021/10/28 03:37:13;;;;;;;16.03;3.80;;;9.30;99.90;;;;;;5018773;28;20276;-87
2021/10/28 03:42:58;;;;;;;13.63;4.20;;;9.40;99.90;;;;;;5030898;28;20220;-88
2021/10/28 03:45:53;;;;;;;12.90;4.00;;;9.40;99.90;;;;;;5035598;28;20206;-89
2021/10/28 04:20:25;;;;;;;15.07;4.27;;;9.40;99.90;;;;;;5128425;27;20557;-89
2021/10/28 04:31:20;;;;;;;13.83;3.17;;;9.40;99.90;;;;;;5109863;28;20202;-87
2021/10/28 04:33:53;;;;;;;10.50;2.80;;;9.30;99.90;;;;;;5108036;28;20209;-88
2021/10/28 04:36:29;;;;;;;11.77;2.50;;;9.30;99.90;;;;;;5111622;28;20236;-88
2021/10/28 04:39:01;;;;;;;10.57;2.73;;;9.30;99.90;;;;;;5125458;28;20233;-88
2021/10/28 04:41:33;;;;;;;9.60;2.80;;;9.30;99.90;;;;;;5115956;28;20202;-88
2021/10/28 04:44:07;;;;;;;7.20;2.40;;;9.40;99.90;;;;;;5111043;28;20672;-88
2021/10/28 04:46:38;;;;;;;11.33;3.10;;;9.40;99.90;;;;;;5111173;28;20666;-88
2021/10/28 04:49:09;;;;;;;8.63;2.43;;;9.40;99.90;;;;;;5129147;28;20216;-88
2021/10/28 04:51:42;;;;;;;8.20;2.70;;;9.40;99.90;;;;;;5110023;28;20207;-87
2021/10/28 04:54:14;;;;;;;8.70;2.30;;;9.50;99.90;;;;;;5100649;28;20199;-89
2021/10/28 04:56:46;;;;;;;10.53;2.63;;;9.40;99.90;;;;;;5078553;28;20227;-90
2021/10/28 04:59:17;;;;;;;8.50;2.17;;;9.40;99.90;;;;;;5074922;28;20231;-89
2021/10/28 05:01:49;;;;;;;6.77;2.00;;;9.50;99.90;;;;;;5097067;28;20207;-89
2021/10/28 05:04:20;;;;;;;9.83;2.30;;;9.40;99.90;;;;;;5113800;28;20191;-91
2021/10/28 05:06:55;;;;;;;7.93;2.13;;;9.40;99.90;;;;;;5101109;28;20195;-90
2021/10/28 05:09:29;;;;;;;7.83;2.10;;;9.50;99.90;;;;;;5079003;28;20575;-89
2021/10/28 05:12:00;;;;;;;8.93;2.23;;;9.50;99.90;;;;;;5087442;28;20282;-89
2021/10/28 05:14:33;;;;;;;10.10;2.40;;;9.50;99.90;;;;;;5094621;28;20268;-90
2021/10/28 05:17:06;;;;;;;7.03;2.30;;;9.40;99.90;;;;;;5093793;28;20520;-89
2021/10/28 05:19:39;;;;;;;10.67;2.53;;;9.50;99.90;;;;;;5094772;28;20230;-89
2021/10/28 05:22:12;;;;;;;8.00;2.20;;;9.50;99.90;;;;;;5081522;28;20721;-88
2021/10/28 05:24:47;;;;;;;5.67;2.30;;;9.50;99.90;;;;;;5073616;28;20227;-88
2021/10/28 05:27:18;;;;;;;12.80;2.63;;;9.40;99.90;;;;;;5074127;28;20225;-88
2021/10/28 05:30:03;;;;;;;11.37;2.50;;;9.40;99.90;;;;;;5088853;28;20290;-88
2021/10/28 05:32:34;;;;;;;9.93;2.87;;;9.40;99.90;;;;;;5101680;28;20299;-90
2021/10/28 05:35:06;;;;;;;11.03;3.03;;;9.40;99.90;;;;;;5067443;28;20212;-89
2021/10/28 05:37:40;;;;;;;6.93;2.40;;;9.40;99.90;;;;;;5081310;28;20223;-89
2021/10/28 05:40:13;;;;;;;7.23;2.53;;;9.40;99.90;;;;;;5076253;28;20250;-88
2021/10/28 05:42:48;;;;;;;11.17;2.57;;;9.40;99.90;;;;;;5065179;28;20236;-89
2021/10/28 05:45:20;;;;;;;6.67;1.93;;;9.40;99.90;;;;;;5067328;28;20927;-89
2021/10/28 05:47:52;;;;;;;9.90;2.50;;;9.40;99.90;;;;;;5101815;28;20217;-86
2021/10/28 05:50:25;;;;;;;5.33;1.90;;;9.40;99.90;;;;;;5113320;28;20199;-90
2021/10/28 05:53:00;;;;;;;5.63;1.90;;;9.40;99.90;;;;;;5073834;28;20220;-90
2021/10/28 05:55:33;;;;;;;7.17;1.50;;;9.30;99.90;;;;;;5068578;28;20199;-89
2021/10/28 05:58:08;;;;;;;5.17;1.73;;;9.20;99.90;;;;;;5104937;27;20202;-89
2021/10/28 06:00:39;;;;;;;4.83;1.80;;;9.20;99.90;;;;;;5103810;28;20230;-89
2021/10/28 06:03:10;;;;;;;3.40;1.20;;;9.20;99.90;;;;;;5087776;28;20346;-88
2021/10/28 06:05:44;;;;;;;3.67;1.00;;;9.10;99.90;;;;;;5094542;28;20212;-89
2021/10/28 06:08:18;;;;;;;3.97;1.10;;;9.10;99.90;;;;;;5102104;28;20270;-89
2021/10/28 06:10:50;;;;;;;3.77;1.13;;;9.10;99.90;;;;;;5100515;28;20215;-88
2021/10/28 06:13:22;;;;;;;4.27;1.30;;;9.20;99.90;;;;;;5100485;28;20222;-88
2021/10/28 06:15:53;;;;;;;3.47;1.20;;;9.10;99.90;;;;;;5100281;28;20252;-89
2021/10/28 06:18:37;;;;;;;3.07;1.17;;;9.10;99.90;;;;;;5099556;28;20384;-89
2021/10/28 06:21:09;;;;;;;3.17;0.90;;;9.10;99.90;;;;;;5102716;28;20258;-89
2021/10/28 06:23:42;;;;;;;1.50;1.20;;;9.10;99.90;;;;;;5113592;28;20244;-88
2021/10/28 06:26:14;;;;;;;1.93;0.77;;;9.00;99.90;;;;;;5096015;28;20207;-89
2021/10/28 06:28:46;;;;;;;6.47;1.20;;;8.90;99.90;;;;;;5094403;28;20221;-88
2021/10/28 06:31:19;;;;;;;5.50;1.07;;;8.90;99.90;;;;;;5080664;28;20211;-89
2021/10/28 06:33:55;;;;;;;3.30;0.87;;;8.90;99.90;;;;;;5098787;28;20221;-87
2021/10/28 06:36:27;;;;;;;2.50;0.83;;;8.90;99.90;;;;;;5077127;28;20211;-88
2021/10/28 06:39:00;;;;;;;2.30;1.03;;;8.90;99.90;;;;;;5070447;28;20645;-88
2021/10/28 06:41:32;;;;;;;1.00;0.70;;;9.00;99.90;;;;;;5077770;28;20208;-88
2021/10/28 06:44:06;;;;;;;5.17;1.30;;;8.90;99.90;;;;;;5077435;28;20196;-89
2021/10/28 06:46:38;;;;;;;2.60;0.80;;;8.90;99.90;;;;;;5057824;28;20235;-88
2021/10/28 06:49:09;;;;;;;2.63;0.93;;;8.90;99.90;;;;;;5065979;28;20211;-89
2021/10/28 06:51:40;;;;;;;2.77;1.03;;;8.80;99.90;;;;;;5081139;28;20211;-88
2021/10/28 06:54:21;;;;;;;3.77;1.10;;;8.80;99.90;;;;;;5079017;28;20671;-88
2021/10/28 06:57:14;;;;;;;3.43;0.70;;;8.80;99.90;;;;;;5079898;28;20638;-89
2021/10/28 07:02:37;;;;;;;2.63;0.77;;;8.80;99.90;;;;;;5075545;28;20212;-89
2021/10/28 07:05:09;;;;;;;1.73;0.60;;;8.80;99.90;;;;;;5081544;28;20204;-90
2021/10/28 07:07:40;;;;;;;1.00;0.43;;;8.80;99.90;;;;;;5084931;28;20249;-89
2021/10/28 07:10:15;;;;;;;2.03;0.70;;;8.80;99.90;;;;;;5078705;28;20239;-89
2021/10/28 07:12:53;;;;;;;2.30;0.60;;;8.80;99.90;;;;;;5075623;28;20269;-89
2021/10/28 07:15:30;;;;;;;1.47;0.60;;;8.70;99.90;;;;;;5061911;28;20208;-89
2021/10/28 07:27:05;;;;;;;1.93;0.63;;;8.70;99.90;;;;;;4996439;28;20236;-89
2021/10/28 07:32:50;;;;;;;1.90;0.60;;;8.70;99.90;;;;;;5077803;28;20228;-89
2021/10/28 07:38:35;;;;;;;1.83;0.60;;;8.60;99.90;;;;;;5060713;28;20215;-88
2021/10/28 08:20:51;;;;;;;0.73;0.40;;;8.80;99.90;;;;;;5075503;28;20661;-88
2021/10/28 08:23:32;;;;;;;0.40;0.40;;;8.80;99.90;;;;;;5075971;28;20620;-90
2021/10/28 08:28:53;;;;;;;0.77;0.40;;;8.70;99.90;;;;;;5096857;28;20669;-89
2021/10/28 08:31:26;;;;;;;0.60;0.33;;;8.80;99.90;;;;;;5092296;28;20220;-89
2021/10/28 08:33:59;;;;;;;1.73;0.50;;;8.80;99.90;;;;;;5093414;28;20204;-90
2021/10/28 08:36:37;;;;;;;0.87;0.67;;;8.80;99.90;;;;;;5092855;28;20210;-89
2021/10/28 08:39:09;;;;;;;0.53;0.37;;;8.80;99.90;;;;;;5066443;28;20212;-89
2021/10/28 08:41:41;;;;;;;0.67;0.30;;;8.80;99.90;;;;;;5055322;28;20258;-87
2021/10/28 08:44:13;;;;;;;1.53;0.60;;;8.70;99.90;;;;;;5062990;28;20265;-88
2021/10/28 08:46:45;;;;;;;1.53;0.70;;;8.70;99.90;;;;;;5074322;28;20211;-89
2021/10/28 08:49:23;;;;;;;0.80;0.40;;;8.80;99.90;;;;;;5066925;28;20646;-88
2021/10/28 08:52:05;;;;;;;0.30;0.30;;;8.80;99.90;;;;;;5055394;28;20757;-90
2021/10/28 08:54:57;;;;;;;4.63;0.53;;;8.80;99.90;;;;;;5093689;28;20271;-88
2021/10/28 08:57:56;;;;;;;0.83;0.47;;;8.80;99.90;;;;;;5079609;28;20230;-88
2021/10/28 09:26:29;;;;;;;3.60;0.70;;;8.70;99.90;;;;;;5099481;27;20217;-89
2021/10/28 09:29:09;;;;;;;1.13;0.60;;;8.60;99.90;;;;;;5074969;28;20648;-89
2021/10/28 09:31:50;;;;;;;0.57;0.40;;;8.60;99.90;;;;;;5060081;28;20299;-89
2021/10/28 09:43:43;;;;;;;0.23;0.23;;;8.50;99.90;;;;;;5074002;28;20207;-88
2021/10/28 09:46:36;;;;;;;2.00;0.43;;;8.50;99.90;;;;;;5071816;28;20214;-89
2021/10/28 09:52:03;;;;;;;0.47;0.40;;;8.60;99.90;;;;;;5078125;28;20266;-89
2021/10/28 09:57:55;;;;;;;0.30;0.30;;;8.50;99.90;;;;;;5076975;28;20210;-90
2021/10/28 10:00:38;;;;;;;1.13;0.40;;;8.60;99.90;;;;;;5057285;28;20319;-89
2021/10/28 10:03:12;;;;;;;0.83;0.30;;;8.60;99.90;;;;;;5059373;28;20208;-89
2021/10/28 10:05:46;;;;;;;0.60;0.30;;;8.60;99.90;;;;;;5072398;28;20203;-90
2021/10/28 10:08:17;;;;;;;0.67;0.40;;;8.60;99.90;;;;;;5059457;28;20215;-88
2021/10/28 10:10:50;;;;;;;0.87;0.30;;;8.60;99.90;;;;;;5060291;28;20247;-88
2021/10/28 10:13:27;;;;;;;1.43;0.40;;;8.60;99.90;;;;;;5087497;28;20218;-88
2021/10/28 10:16:00;;;;;;;2.87;0.50;;;8.60;99.90;;;;;;5095065;28;20227;-87
2021/10/28 10:18:33;;;;;;;1.20;0.50;;;8.60;99.90;;;;;;5077778;28;20215;-88
2021/10/28 10:21:08;;;;;;;1.13;0.30;;;8.60;99.90;;;;;;5063734;28;20232;-88
2021/10/28 10:24:15;;;;;;;0.63;0.30;;;8.60;99.90;;;;;;5081884;28;20659;-87
2021/10/28 10:27:50;;;;;;;0.93;0.30;;;8.60;99.90;;;;;;5074373;28;20210;-89
2021/10/28 11:22:09;;;;;;;0.60;0.30;;;8.90;99.90;;;;;;5158332;27;20332;-89
2021/10/28 11:30:56;;;;;;;1.10;0.40;;;9.00;99.90;;;;;;5170206;27;20197;-87
2021/10/28 12:14:34;;;;;;;2.13;0.40;;;9.10;99.90;;;;;;5071947;28;20200;-88
2021/10/28 12:25:30;;;;;;;0.40;0.40;;;9.00;99.90;;;;;;5121561;27;20240;-88
2021/10/28 12:45:46;;;;;;;2.13;0.50;;;9.30;99.90;;;;;;5132642;27;20644;-89
2021/10/28 12:51:46;;;;;;;0.57;0.40;;;9.20;99.90;;;;;;5118811;28;20209;-89
2021/10/28 15:29:53;;;;;;;1.37;0.70;;;13.30;99.90;;;;;;5061754;28;20283;-89
2021/10/28 15:32:52;;;;;;;1.40;0.70;;;13.40;99.90;;;;;;5056810;28;20204;-89
2021/10/28 15:35:27;;;;;;;1.37;0.87;;;13.50;99.90;;;;;;5059625;28;20200;-89
2021/10/28 15:38:08;;;;;;;0.93;0.50;;;13.50;99.90;;;;;;5067001;28;20204;-89
2021/10/28 16:23:43;;;;;;;4.23;2.20;;;13.90;99.90;;;;;;5075582;28;20196;-88
2021/10/28 16:26:32;;;;;;;1.20;0.70;;;13.80;99.90;;;;;;5040927;28;20241;-88
2021/10/28 16:29:07;;;;;;;2.70;1.73;;;13.80;99.90;;;;;;5053634;28;20212;-89
2021/10/28 16:31:43;;;;;;;2.23;1.40;;;13.90;99.90;;;;;;5050023;28;20265;-88
2021/10/28 16:34:14;;;;;;;0.67;0.50;;;13.90;99.90;;;;;;5069048;28;20637;-89
2021/10/28 16:36:47;;;;;;;1.13;0.70;;;13.90;99.90;;;;;;5066242;28;20613;-89
2021/10/28 16:39:19;;;;;;;1.27;0.60;;;14.00;99.90;;;;;;5072123;28;20232;-90
2021/10/28 16:41:55;;;;;;;13.83;10.23;;;13.90;99.90;;;;;;5070127;28;20216;-89
2021/10/28 16:44:27;;;;;;;0.70;0.70;;;14.00;99.90;;;;;;5070060;28;20197;-88
2021/10/28 16:47:05;;;;;;;0.83;0.67;;;14.00;99.90;;;;;;5071933;28;20242;-89
2021/10/28 16:49:37;;;;;;;1.40;0.50;;;14.00;99.90;;;;;;5068261;28;20188;-88
2021/10/28 16:52:09;;;;;;;1.40;0.77;;;14.00;99.90;;;;;;5092819;22;20202;-88
2021/10/28 16:54:40;;;;;;;1.57;0.80;;;14.00;99.90;;;;;;5084772;28;20211;-89
2021/10/28 16:57:16;;;;;;;0.70;0.70;;;14.00;99.90;;;;;;5088845;28;20203;-90
2021/10/28 16:59:47;;;;;;;0.50;0.50;;;14.00;99.90;;;;;;5059626;28;20227;-87
2021/10/28 17:02:20;;;;;;;1.10;0.50;;;14.10;99.90;;;;;;5058813;28;20208;-89
2021/10/28 17:04:52;;;;;;;1.57;0.70;;;14.10;99.90;;;;;;5059620;28;20240;-89
2021/10/28 17:07:24;;;;;;;2.23;1.27;;;14.10;99.90;;;;;;5078253;28;20227;-89
2021/10/28 17:09:57;;;;;;;2.53;1.27;;;14.20;99.90;;;;;;5079460;28;20203;-89
2021/10/28 17:12:29;;;;;;;0.97;0.83;;;14.20;99.90;;;;;;5079871;28;20233;-89
2021/10/28 17:14:59;;;;;;;1.47;0.63;;;14.20;99.90;;;;;;5081631;28;20237;-89
2021/10/28 17:17:33;;;;;;;1.20;0.80;;;14.20;99.90;;;;;;5082232;28;20211;-90
2021/10/28 17:20:07;;;;;;;3.23;3.00;;;14.20;99.90;;;;;;5097994;28;20278;-89
2021/10/28 17:22:39;;;;;;;1.77;0.70;;;14.30;99.90;;;;;;5096829;28;20200;-92
2021/10/28 17:25:17;;;;;;;1.27;1.00;;;14.30;99.90;;;;;;5096779;28;20294;-89
2021/10/28 17:27:50;;;;;;;0.90;0.70;;;14.30;99.90;;;;;;5093541;28;20231;-90
2021/10/28 17:30:21;;;;;;;4.50;3.10;;;14.30;99.90;;;;;;5094554;28;20237;-88
2021/10/28 17:35:37;;;;;;;1.43;0.90;;;14.30;99.90;;;;;;5025999;28;20264;-89
2021/10/28 17:38:08;;;;;;;4.23;2.80;;;14.40;99.90;;;;;;5016215;28;20201;-90
2021/10/28 17:40:39;;;;;;;1.80;0.80;;;14.40;99.90;;;;;;5018330;28;20237;-89
2021/10/28 17:43:12;;;;;;;6.43;5.77;;;14.40;99.90;;;;;;5023740;28;20205;-90
2021/10/28 17:45:44;;;;;;;2.17;0.80;;;14.50;99.90;;;;;;5020228;28;20229;-90
2021/10/28 17:48:15;;;;;;;2.40;1.20;;;14.50;99.90;;;;;;5031862;28;20244;-90
2021/10/28 17:50:49;;;;;;;1.20;1.10;;;14.50;99.90;;;;;;5033870;28;20210;-91
2021/10/28 17:53:20;;;;;;;0.70;0.70;;;14.50;99.90;;;;;;5017922;28;20214;-90
2021/10/28 17:55:52;;;;;;;1.03;0.90;;;14.60;99.90;;;;;;5017712;28;20190;-90
2021/10/28 17:58:24;;;;;;;4.50;4.10;;;14.60;99.90;;;;;;5017744;28;20229;-90
2021/10/28 18:00:55;;;;;;;1.77;0.83;;;14.60;99.90;;;;;;5018022;28;20218;-90
2021/10/28 18:03:27;;;;;;;2.00;0.80;;;14.60;99.90;;;;;;5018047;28;20225;-89
2021/10/28 18:06:00;;;;;;;2.80;1.30;;;14.60;99.90;;;;;;5015962;28;20194;-89
2021/10/28 18:08:31;;;;;;;1.37;0.90;;;14.60;99.90;;;;;;5033815;28;20274;-88
2021/10/28 18:11:02;;;;;;;1.80;1.00;;;14.60;99.90;;;;;;5021925;28;20186;-88
2021/10/28 18:13:35;;;;;;;2.57;0.93;;;14.60;99.90;;;;;;4999688;28;20198;-90
2021/10/28 18:16:07;;;;;;;1.40;0.90;;;14.60;99.90;;;;;;5016221;28;20261;-89
2021/10/28 18:18:39;;;;;;;1.70;1.10;;;14.70;99.90;;;;;;5012140;28;20218;-88
2021/10/28 18:21:13;;;;;;;3.27;1.30;;;14.70;99.90;;;;;;5037283;28;20249;-88
2021/10/28 18:23:49;;;;;;;1.47;1.17;;;14.60;99.90;;;;;;5035176;28;20241;-89
2021/10/28 18:26:20;;;;;;;3.00;1.17;;;14.70;99.90;;;;;;5016414;28;20240;-87
2021/10/28 18:28:52;;;;;;;2.83;1.10;;;14.70;99.90;;;;;;5016647;28;20293;-90
2021/10/28 18:31:25;;;;;;;4.43;1.50;;;14.70;99.90;;;;;;5032227;28;20209;-88
2021/10/28 18:33:58;;;;;;;2.17;1.83;;;14.70;99.90;;;;;;5034774;28;20224;-89
2021/10/28 18:39:26;;;;;;;2.30;1.20;;;14.70;99.90;;;;;;5037236;28;20610;-88
2021/10/28 18:41:59;;;;;;;1.70;1.17;;;14.70;99.90;;;;;;5035597;28;20189;-89
2021/10/28 18:44:30;;;;;;;1.47;1.20;;;14.70;99.90;;;;;;5011991;28;20202;-90
2021/10/28 18:47:02;;;;;;;2.90;2.70;;;14.70;99.90;;;;;;5034660;28;20323;-90
2021/10/28 18:49:36;;;;;;;1.57;1.17;;;14.70;99.90;;;;;;5032658;28;20260;-90
2021/10/28 18:52:10;;;;;;;2.17;1.40;;;14.70;99.90;;;;;;5055587;22;20220;-89
2021/10/28 18:54:42;;;;;;;3.07;1.10;;;14.70;99.90;;;;;;5071149;28;20621;-91
2021/10/28 18:57:17;;;;;;;1.50;1.20;;;14.70;99.90;;;;;;5069454;28;20218;-90
2021/10/28 18:59:52;;;;;;;2.23;1.30;;;14.70;99.90;;;;;;5055286;28;20236;-90
2021/10/28 19:02:27;;;;;;;3.50;0.90;;;14.60;99.90;;;;;;5063622;28;20205;-90
2021/10/28 19:07:36;;;;;;;1.70;1.00;;;14.60;99.90;;;;;;5104306;22;20714;-90
2021/10/28 19:10:09;;;;;;;3.00;2.80;;;14.60;99.90;;;;;;5068666;28;20191;-90
2021/10/28 19:12:44;;;;;;;1.93;0.80;;;14.60;99.90;;;;;;5073978;28;20192;-90
2021/10/28 19:15:19;;;;;;;1.73;1.00;;;14.70;99.90;;;;;;5074314;28;20222;-89
2021/10/28 19:17:53;;;;;;;2.30;0.93;;;14.60;99.90;;;;;;5073815;28;20235;-90
2021/10/28 19:20:26;;;;;;;2.37;1.30;;;14.70;99.90;;;;;;5075106;28;20200;-90
2021/10/28 19:22:59;;;;;;;3.43;1.00;;;14.70;99.90;;;;;;5076434;28;20204;-89
2021/10/28 19:28:08;;;;;;;1.53;1.23;;;14.70;99.90;;;;;;5080520;22;20229;-90
2021/10/28 19:30:47;;;;;;;2.23;1.63;;;14.70;99.90;;;;;;5040375;28;20192;-90
2021/10/28 19:33:20;;;;;;;2.00;1.00;;;14.80;99.90;;;;;;5037019;28;20213;-89
2021/10/28 19:35:58;;;;;;;1.43;0.90;;;14.90;99.90;;;;;;5035754;28;20213;-90
2021/10/28 19:38:46;;;;;;;56.73;44.57;;;15.00;99.90;;;;;;5032238;28;20658;-90
2021/10/28 19:46:57;;;;;;;1.30;0.90;;;15.20;99.90;;;;;;5030048;28;20286;-89
2021/10/28 19:49:29;;;;;;;1.13;0.80;;;15.30;99.90;;;;;;5032958;28;20245;-88
2021/10/28 19:54:32;;;;;;;0.97;0.70;;;15.30;99.90;;;;;;5028573;28;20218;-89
2021/10/28 19:57:05;;;;;;;0.83;0.73;;;15.30;99.90;;;;;;5027469;28;20212;-89
2021/10/28 19:59:44;;;;;;;2.07;0.83;;;15.30;99.90;;;;;;5032255;28;20659;-88
2021/10/28 20:02:20;;;;;;;3.90;1.30;;;15.30;99.90;;;;;;5029095;28;20236;-90
2021/10/28 20:07:57;;;;;;;1.93;0.90;;;15.30;99.90;;;;;;5023471;28;20205;-90
2021/10/28 20:13:46;;;;;;;2.13;0.63;;;15.40;99.90;;;;;;5000908;28;20225;-89
2021/10/28 20:21:55;;;;;;;1.60;1.10;;;15.20;99.90;;;;;;5027381;28;20233;-89
2021/10/28 20:24:27;;;;;;;1.80;1.30;;;15.20;99.90;;;;;;5030772;28;20573;-89
2021/10/28 20:27:00;;;;;;;1.13;0.90;;;15.20;99.90;;;;;;5031777;28;20201;-89
2021/10/28 20:32:07;;;;;;;4.20;3.27;;;15.30;99.90;;;;;;5066473;22;20239;-90
2021/10/28 20:34:49;;;;;;;1.90;0.90;;;15.30;99.90;;;;;;5070087;28;20204;-89
2021/10/28 20:37:21;;;;;;;2.20;0.97;;;15.30;99.90;;;;;;5071484;28;20204;-90
2021/10/28 20:39:52;;;;;;;1.93;1.10;;;15.30;99.90;;;;;;5069927;28;20201;-88
2021/10/28 20:42:36;;;;;;;1.40;1.00;;;15.30;99.90;;;;;;5029950;28;20213;-89
2021/10/28 20:45:09;;;;;;;1.00;0.90;;;15.20;99.90;;;;;;5048144;28;20212;-89
2021/10/28 20:47:42;;;;;;;2.53;1.10;;;15.30;99.90;;;;;;5045578;28;20201;-89
2021/10/28 20:50:16;;;;;;;3.83;0.77;;;15.30;99.90;;;;;;5066475;28;20241;-91
2021/10/28 20:52:48;;;;;;;1.13;1.00;;;15.20;99.90;;;;;;5052534;28;20208;-90
2021/10/28 20:55:21;;;;;;;2.07;0.80;;;15.20;99.90;;;;;;5049593;28;20669;-90
2021/10/28 20:57:54;;;;;;;1.00;0.80;;;15.20;99.90;;;;;;5046316;28;20276;-90
2021/10/28 21:00:26;;;;;;;1.53;0.77;;;15.20;99.90;;;;;;5045494;28;20275;-89
2021/10/28 21:02:59;;;;;;;2.40;0.90;;;15.20;99.90;;;;;;5042884;28;20306;-91
2021/10/28 21:05:31;;;;;;;1.30;0.80;;;15.20;99.90;;;;;;5027166;28;20232;-90
2021/10/28 21:08:02;;;;;;;3.10;0.73;;;15.20;99.90;;;;;;5039431;28;20231;-91
2021/10/28 21:10:33;;;;;;;1.07;0.60;;;15.20;99.90;;;;;;5038243;28;20292;-91
2021/10/28 21:18:13;;;;;;;0.63;0.50;;;15.20;99.90;;;;;;5066772;28;20661;-90
2021/10/28 21:20:45;;;;;;;2.33;0.70;;;15.20;99.90;;;;;;5073266;28;20693;-90
2021/10/28 21:23:17;;;;;;;2.73;0.80;;;15.10;99.90;;;;;;5071588;28;20267;-90
2021/10/28 21:25:49;;;;;;;6.07;0.90;;;15.10;99.90;;;;;;5072983;28;20701;-90
2021/10/28 21:28:21;;;;;;;1.00;0.50;;;15.10;99.90;;;;;;5054098;28;20237;-90
2021/10/28 21:30:53;;;;;;;1.87;0.77;;;15.10;99.90;;;;;;5065460;28;20227;-90
2021/10/28 21:33:27;;;;;;;0.97;0.93;;;15.10;99.90;;;;;;5072056;28;20212;-90
2021/10/28 21:35:59;;;;;;;1.70;0.77;;;15.10;99.90;;;;;;5076115;28;20196;-88
2021/10/28 21:38:31;;;;;;;4.47;0.80;;;15.10;99.90;;;;;;5078294;28;20215;-91
2021/10/28 21:43:38;;;;;;;2.70;1.20;;;15.20;99.90;;;;;;5249312;22;20240;-91
2021/10/28 21:46:12;;;;;;;4.97;1.37;;;15.10;99.90;;;;;;5056765;28;20212;-91
2021/10/28 21:48:47;;;;;;;2.45;0.60;;;15.00;99.90;;;;;;5050980;28;20213;-84
2021/10/28 21:51:21;;;;;;;0.50;0.47;;;15.00;99.90;;;;;;5053483;28;20258;-84
2021/10/28 21:53:54;;;;;;;1.80;0.90;;;15.00;99.90;;;;;;5051186;28;20204;-85
2021/10/28 21:59:50;;;;;;;0.83;0.50;;;15.00;99.90;;;;;;5032614;28;20301;-84
2021/10/28 22:02:38;;;;;;;4.67;0.70;;;15.00;99.90;;;;;;5011696;28;20263;-85
2021/10/28 22:05:25;;;;;;;2.90;0.87;;;15.00;99.90;;;;;;5002896;28;20265;-83
2021/10/28 22:24:54;;;;;;;4.80;1.13;;;15.10;99.90;;;;;;5032231;28;20209;-84
2021/10/28 22:27:27;;;;;;;2.23;1.00;;;15.10;99.90;;;;;;5028844;28;20215;-83
2021/10/28 22:30:01;;;;;;;1.10;1.00;;;15.20;99.90;;;;;;5033707;28;20252;-84
2021/10/28 22:32:47;;;;;;;1.37;0.80;;;15.20;99.90;;;;;;5028839;28;20612;-84
2021/10/28 22:35:23;;;;;;;1.77;0.80;;;15.20;99.90;;;;;;5023259;28;20244;-84
2021/10/28 22:38:01;;;;;;;4.90;0.83;;;15.20;99.90;;;;;;5016916;28;20205;-84
2021/10/28 22:40:34;;;;;;;2.93;1.00;;;15.20;99.90;;;;;;5023631;28;20237;-83
2021/10/28 22:43:07;;;;;;;1.77;0.83;;;15.20;99.90;;;;;;5027121;28;20221;-84
2021/10/28 22:45:42;;;;;;;1.07;0.83;;;15.10;99.90;;;;;;5028022;28;20209;-82
2021/10/28 22:48:28;;;;;;;9.20;0.90;;;15.10;99.90;;;;;;5029297;28;20281;-83
2021/10/28 22:50:58;;;;;;;21.23;1.53;;;14.90;99.90;;;;;;5028956;28;20261;-83
2021/10/28 22:53:32;;;;;;;0.93;0.50;;;14.70;99.90;;;;;;5024731;28;20236;-85